createdAt,value
2023-02-23T00:02:30.491Z,24.08
2023-02-23T00:05:35.251Z,26.67
2023-02-23T00:08:37.420Z,26.42
2023-02-23T00:11:38.695Z,25.70
2023-02-23T00:14:40.170Z,22.40
2023-02-23T00:17:41.798Z,20.05
2023-02-23T00:20:48.370Z,23.35
2023-02-23T00:23:52.062Z,20.50
2023-02-23T00:26:53.389Z,21.23
2023-02-23T00:29:54.687Z,27.33
2023-02-23T00:32:55.983Z,23.75
2023-02-23T00:36:02.958Z,27.55
2023-02-23T00:39:11.943Z,20.63
2023-02-23T00:42:13.643Z,22.85
2023-02-23T00:45:15.088Z,26.00
2023-02-23T00:48:16.386Z,23.77
2023-02-23T00:51:18.580Z,21.65
2023-02-23T00:54:20.788Z,24.48
2023-02-23T00:57:22.543Z,23.88
2023-02-23T01:00:25.462Z,23.40
2023-02-23T01:03:27.297Z,22.95
2023-02-23T01:06:28.585Z,22.25
2023-02-23T01:09:29.881Z,27.23
2023-02-23T01:12:31.156Z,27.60
2023-02-23T01:15:32.605Z,23.02
2023-02-23T01:18:34.768Z,25.13
2023-02-23T01:21:37.716Z,31.38
2023-02-23T01:24:39.237Z,26.30
2023-02-23T01:27:41.255Z,24.85
2023-02-23T01:30:42.725Z,25.63
2023-02-23T01:33:44.175Z,25.13
2023-02-23T01:36:45.487Z,23.02
2023-02-23T01:39:47.074Z,27.48
2023-02-23T01:42:48.331Z,22.92
2023-02-23T01:45:49.678Z,27.25
2023-02-23T01:48:51.821Z,25.65
2023-02-23T01:51:57.816Z,23.15
2023-02-23T01:54:59.088Z,23.23
2023-02-23T01:58:19.636Z,27.15
2023-02-23T02:01:21.943Z,26.35
2023-02-23T02:04:25.293Z,25.60
2023-02-23T02:07:28.802Z,21.70
2023-02-23T02:10:46.659Z,22.40
2023-02-23T02:16:55.068Z,26.02
2023-02-23T02:20:12.701Z,26.15
2023-02-23T02:23:17.001Z,24.30
2023-02-23T02:26:21.664Z,24.90
2023-02-23T02:32:42.936Z,23.48
2023-02-23T02:35:46.955Z,23.58
2023-02-23T02:39:10.412Z,24.45
2023-02-23T02:42:14.750Z,22.75
2023-02-23T02:45:22.194Z,23.65
2023-02-23T02:48:38.580Z,22.52
2023-02-23T02:51:43.514Z,22.75
2023-02-23T02:54:48.491Z,26.60
2023-02-23T02:57:51.123Z,25.42
2023-02-23T03:01:11.517Z,25.40
2023-02-23T03:04:39.613Z,24.85
2023-02-23T03:08:03.535Z,21.92
2023-02-23T03:11:28.598Z,23.70
2023-02-23T03:14:54.935Z,25.00
2023-02-23T03:18:21.680Z,24.85
2023-02-23T03:21:46.037Z,24.30
2023-02-23T03:25:24.862Z,28.77
2023-02-23T03:28:49.500Z,28.20
2023-02-23T03:32:20.571Z,28.05
2023-02-23T03:35:52.685Z,29.50
2023-02-23T03:39:19.082Z,25.52
2023-02-23T03:42:43.018Z,23.50
2023-02-23T03:46:05.082Z,22.42
2023-02-23T03:49:26.903Z,23.48
2023-02-23T03:52:50.552Z,26.55
2023-02-23T03:56:13.997Z,23.75
2023-02-23T03:59:37.839Z,25.67
2023-02-23T04:02:58.821Z,26.77
2023-02-23T04:06:19.517Z,28.77
2023-02-23T04:09:39.310Z,30.30
2023-02-23T04:13:05.575Z,26.50
2023-02-23T04:16:08.072Z,23.48
2023-02-23T04:19:09.427Z,27.33
2023-02-23T04:22:10.726Z,26.33
2023-02-23T04:25:13.224Z,23.80
2023-02-23T04:28:14.610Z,27.73
2023-02-23T04:31:18.661Z,25.00
2023-02-23T04:34:20.283Z,23.75
2023-02-23T04:37:21.910Z,22.25
2023-02-23T04:40:24.367Z,26.15
2023-02-23T04:43:25.747Z,24.40
2023-02-23T04:46:27.039Z,28.55
2023-02-23T04:49:28.454Z,23.75
2023-02-23T04:52:29.706Z,24.52
2023-02-23T04:55:32.625Z,25.08
2023-02-23T04:58:33.887Z,25.13
2023-02-23T05:01:37.140Z,25.77
2023-02-23T05:04:38.560Z,23.27
2023-02-23T05:07:39.871Z,23.15
2023-02-23T05:10:41.212Z,23.63
2023-02-23T05:13:42.495Z,25.63
2023-02-23T05:16:43.815Z,29.02
2023-02-23T05:19:45.076Z,27.00
2023-02-23T05:22:46.297Z,26.75
2023-02-23T05:25:47.546Z,28.63
2023-02-23T05:28:48.869Z,28.00
2023-02-23T05:31:50.349Z,31.13
2023-02-23T05:34:51.798Z,24.20
2023-02-23T05:37:53.076Z,31.98
2023-02-23T05:40:54.415Z,30.38
2023-02-23T05:43:55.734Z,26.77
2023-02-23T05:46:57.089Z,26.45
2023-02-23T05:49:58.546Z,28.45
2023-02-23T05:52:59.936Z,27.00
2023-02-23T05:56:01.957Z,27.60
2023-02-23T05:59:04.768Z,27.90
2023-02-23T06:02:06.088Z,29.90
2023-02-23T06:05:08.133Z,27.85
2023-02-23T06:08:09.510Z,32.58
2023-02-23T06:11:10.808Z,28.85
2023-02-23T06:14:12.116Z,27.95
2023-02-23T06:17:13.409Z,26.50
2023-02-23T06:20:14.814Z,27.38
2023-02-23T06:23:16.095Z,26.67
2023-02-23T06:26:17.370Z,29.00
2023-02-23T06:29:18.640Z,27.33
2023-02-23T06:32:19.950Z,26.90
2023-02-23T06:35:21.251Z,31.15
2023-02-23T06:38:22.754Z,30.73
2023-02-23T06:41:24.450Z,30.25
2023-02-23T06:44:25.798Z,25.83
2023-02-23T06:47:27.135Z,34.10
2023-02-23T06:50:28.518Z,30.90
2023-02-23T06:53:30.783Z,26.77
2023-02-23T06:56:32.198Z,25.85
2023-02-23T06:59:33.461Z,32.30
2023-02-23T07:02:36.518Z,28.67
2023-02-23T07:05:37.847Z,33.95
2023-02-23T07:08:39.356Z,28.33
2023-02-23T07:11:41.623Z,33.20
2023-02-23T07:14:42.930Z,33.83
2023-02-23T07:17:45.082Z,23.73
2023-02-23T07:20:46.650Z,26.48
2023-02-23T07:23:49.737Z,34.03
2023-02-23T07:26:52.030Z,29.23
2023-02-23T07:29:53.444Z,32.20
2023-02-23T07:32:54.788Z,29.67
2023-02-23T07:35:56.053Z,27.52
2023-02-23T07:38:57.443Z,28.52
2023-02-23T07:41:58.740Z,26.63
2023-02-23T07:45:00.265Z,23.15
2023-02-23T07:48:01.720Z,27.80
2023-02-23T07:51:09.968Z,26.40
2023-02-23T07:54:11.420Z,23.23
2023-02-23T07:57:12.842Z,24.15
2023-02-23T08:00:14.356Z,29.55
2023-02-23T08:03:15.624Z,32.78
2023-02-23T08:06:17.409Z,25.88
2023-02-23T08:09:18.699Z,28.98
2023-02-23T08:12:20.120Z,26.83
2023-02-23T08:15:21.470Z,24.23
2023-02-23T08:18:22.761Z,22.83
2023-02-23T08:21:24.418Z,24.95
2023-02-23T08:24:26.578Z,22.63
2023-02-23T08:27:27.928Z,33.13
2023-02-23T08:30:29.269Z,24.60
2023-02-23T08:33:32.058Z,25.15
2023-02-23T08:36:33.407Z,27.90
2023-02-23T08:39:34.649Z,24.88
2023-02-23T08:42:35.957Z,24.73
2023-02-23T08:45:39.566Z,26.50
2023-02-23T08:48:40.891Z,29.83
2023-02-23T08:51:42.975Z,25.38
2023-02-23T08:54:44.263Z,26.77
2023-02-23T08:57:45.636Z,23.80
2023-02-23T09:00:46.955Z,25.42
2023-02-23T09:03:48.529Z,24.05
2023-02-23T09:06:50.054Z,21.00
2023-02-23T09:09:55.255Z,30.42
2023-02-23T09:12:56.528Z,26.33
2023-02-23T09:15:58.318Z,29.05
2023-02-23T09:19:01.300Z,24.20
2023-02-23T09:22:02.660Z,31.17
2023-02-23T09:25:04.908Z,25.33
2023-02-23T09:28:06.247Z,24.65
2023-02-23T09:31:08.668Z,26.55
2023-02-23T09:34:10.621Z,23.77
2023-02-23T09:37:11.881Z,22.13
2023-02-23T09:40:21.974Z,18.95
2023-02-23T09:43:28.251Z,24.00
2023-02-23T09:46:38.367Z,21.00
2023-02-23T09:49:40.942Z,20.70
2023-02-23T09:52:44.973Z,18.75
2023-02-23T09:55:47.570Z,15.15
2023-02-23T09:58:50.338Z,16.30
2023-02-23T10:01:51.686Z,17.50
2023-02-23T10:04:57.676Z,14.05
2023-02-23T10:08:12.576Z,18.88
2023-02-23T10:11:20.862Z,17.80
2023-02-23T10:14:26.861Z,14.95
2023-02-23T10:17:38.792Z,18.02
2023-02-23T10:20:58.178Z,15.48
2023-02-23T10:24:02.991Z,13.05
2023-02-23T10:27:07.633Z,12.65
2023-02-23T10:30:18.874Z,13.00
2023-02-23T10:33:34.880Z,12.05
2023-02-23T10:36:37.559Z,12.25
2023-02-23T10:39:40.376Z,15.10
2023-02-23T10:42:41.675Z,12.95
2023-02-23T10:45:47.832Z,12.30
2023-02-23T10:48:50.765Z,11.75
2023-02-23T10:51:52.360Z,12.63
2023-02-23T10:54:53.762Z,13.82
2023-02-23T10:58:02.693Z,16.98
2023-02-23T11:01:04.915Z,11.93
2023-02-23T11:04:19.146Z,10.77
2023-02-23T11:07:31.159Z,9.35
2023-02-23T11:10:32.450Z,10.95
2023-02-23T11:13:35.500Z,10.60
2023-02-23T11:16:39.072Z,8.30
2023-02-23T11:19:41.237Z,7.25
2023-02-23T11:22:42.739Z,8.90
2023-02-23T11:25:45.212Z,7.55
2023-02-23T11:28:46.960Z,6.05
2023-02-23T11:31:53.872Z,6.25
2023-02-23T11:35:12.064Z,8.13
2023-02-23T11:38:23.649Z,7.05
2023-02-23T11:41:25.067Z,7.80
2023-02-23T11:44:26.397Z,6.95
2023-02-23T11:47:27.732Z,8.07
2023-02-23T11:50:33.554Z,6.15
2023-02-23T11:53:44.993Z,5.80
2023-02-23T11:56:50.417Z,6.40
2023-02-23T11:59:52.156Z,6.03
2023-02-23T12:03:00.795Z,5.47
2023-02-23T12:06:02.454Z,6.18
2023-02-23T12:09:18.470Z,6.97
2023-02-23T12:12:22.842Z,5.18
2023-02-23T12:15:31.225Z,7.15
2023-02-23T12:18:35.551Z,7.95
2023-02-23T12:21:36.855Z,9.15
2023-02-23T12:24:44.305Z,6.70
2023-02-23T12:27:54.030Z,6.32
2023-02-23T12:30:55.299Z,6.20
2023-02-23T12:34:02.462Z,5.90
2023-02-23T12:37:07.473Z,6.45
2023-02-23T12:40:19.168Z,6.93
2023-02-23T12:43:32.869Z,5.72
2023-02-23T12:46:37.649Z,7.20
2023-02-23T12:49:44.585Z,7.22
2023-02-23T12:52:48.067Z,7.38
2023-02-23T12:55:55.719Z,6.93
2023-02-23T12:59:03.299Z,5.95
2023-02-23T13:02:15.274Z,5.35
2023-02-23T13:05:26.886Z,8.18
2023-02-23T13:08:46.368Z,8.98
2023-02-23T13:11:59.767Z,6.22
2023-02-23T13:15:09.941Z,5.47
2023-02-23T13:18:29.884Z,4.95
2023-02-23T13:21:44.611Z,4.53
2023-02-23T13:24:47.568Z,4.85
2023-02-23T13:27:51.775Z,5.28
2023-02-23T13:30:53.675Z,5.00
2023-02-23T13:33:56.653Z,4.38
2023-02-23T13:36:59.236Z,3.90
2023-02-23T13:40:03.548Z,6.22
2023-02-23T13:43:17.670Z,4.45
2023-02-23T13:46:22.013Z,6.82
2023-02-23T13:49:47.121Z,3.58
2023-02-23T13:52:48.783Z,3.53
2023-02-23T13:55:51.613Z,4.70
2023-02-23T13:58:52.934Z,6.25
2023-02-23T14:01:55.013Z,6.22
2023-02-23T14:04:57.101Z,5.18
2023-02-23T14:08:02.213Z,5.75
2023-02-23T14:11:03.984Z,7.38
2023-02-23T14:14:05.491Z,4.45
2023-02-23T14:17:16.063Z,5.13
2023-02-23T14:20:29.504Z,6.15
2023-02-23T14:24:02.104Z,4.93
2023-02-23T14:27:39.852Z,4.63
2023-02-23T14:30:51.412Z,6.07
2023-02-23T14:36:55.980Z,7.40
2023-02-23T14:40:01.522Z,4.20
2023-02-23T14:43:03.688Z,4.75
2023-02-23T14:46:09.349Z,4.93
2023-02-23T14:49:17.530Z,6.53
2023-02-23T14:52:21.645Z,5.75
2023-02-23T14:58:28.906Z,7.28
2023-02-23T15:01:34.632Z,8.60
2023-02-23T15:04:38.729Z,8.38
2023-02-23T15:07:41.039Z,7.95
2023-02-23T15:10:43.933Z,5.65
2023-02-23T15:13:50.246Z,6.10
2023-02-23T15:16:51.680Z,6.88
2023-02-23T15:20:05.966Z,6.40
2023-02-23T15:23:16.826Z,6.90
2023-02-23T15:26:24.419Z,7.60
2023-02-23T15:29:30.384Z,5.78
2023-02-23T15:32:31.734Z,5.20
2023-02-23T15:35:44.974Z,6.72
2023-02-23T15:38:47.756Z,6.97
2023-02-23T15:41:49.433Z,10.60
2023-02-23T15:44:55.524Z,6.03
2023-02-23T15:47:58.073Z,5.38
2023-02-23T15:50:59.431Z,7.65
2023-02-23T15:54:02.451Z,9.25
2023-02-23T15:57:14.071Z,7.78
2023-02-23T16:00:27.214Z,6.05
2023-02-23T16:03:32.549Z,7.85
2023-02-23T16:06:35.487Z,6.75
2023-02-23T16:09:38.328Z,7.45
2023-02-23T16:12:39.863Z,7.18
2023-02-23T16:15:41.608Z,7.72
2023-02-23T16:18:43.156Z,4.70
2023-02-23T16:21:49.453Z,5.90
2023-02-23T16:24:55.745Z,9.18
2023-02-23T16:28:02.543Z,8.15
2023-02-23T16:31:05.157Z,7.15
2023-02-23T16:34:18.755Z,7.30
2023-02-23T16:37:23.061Z,5.45
2023-02-23T16:40:24.543Z,8.25
2023-02-23T16:43:25.877Z,6.35
2023-02-23T16:46:29.164Z,7.60
2023-02-23T16:49:31.186Z,7.90
2023-02-23T16:52:32.622Z,8.25
2023-02-23T16:55:39.128Z,7.43
2023-02-23T16:58:42.461Z,9.60
2023-02-23T17:01:46.430Z,9.05
2023-02-23T17:04:51.527Z,8.25
2023-02-23T17:07:53.506Z,5.75
2023-02-23T17:10:55.913Z,8.13
2023-02-23T17:13:57.203Z,8.52
2023-02-23T17:16:59.284Z,10.93
2023-02-23T17:20:00.708Z,7.97
2023-02-23T17:23:02.452Z,9.13
2023-02-23T17:26:05.615Z,6.55
2023-02-23T17:29:06.910Z,7.78
2023-02-23T17:32:08.413Z,9.90
2023-02-23T17:35:10.042Z,8.20
2023-02-23T17:38:11.393Z,8.30
2023-02-23T17:41:14.766Z,10.82
2023-02-23T17:44:16.112Z,8.85
2023-02-23T17:47:17.773Z,12.40
2023-02-23T17:50:22.644Z,11.48
2023-02-23T17:53:24.445Z,9.70
2023-02-23T17:56:25.783Z,10.13
2023-02-23T17:59:27.127Z,10.38
2023-02-23T18:02:28.459Z,10.25
2023-02-23T18:05:29.838Z,10.55
2023-02-23T18:08:31.724Z,11.10
2023-02-23T18:11:34.093Z,9.07
2023-02-23T18:14:35.663Z,9.45
2023-02-23T18:17:37.088Z,10.52
2023-02-23T18:20:38.434Z,10.88
2023-02-23T18:23:39.818Z,10.73
2023-02-23T18:26:41.353Z,10.38
2023-02-23T18:29:42.717Z,19.05
2023-02-23T18:32:44.159Z,13.07
2023-02-23T18:35:45.566Z,13.55
2023-02-23T18:38:46.915Z,10.60
2023-02-23T18:41:49.021Z,12.40
2023-02-23T18:44:50.424Z,14.77
2023-02-23T18:47:51.772Z,14.57
2023-02-23T18:50:56.642Z,12.18
2023-02-23T18:53:57.943Z,11.80
2023-02-23T18:56:59.220Z,12.18
2023-02-23T19:00:00.546Z,10.93
2023-02-23T19:03:02.569Z,9.40
2023-02-23T19:06:08.890Z,12.68
2023-02-23T19:09:12.546Z,10.95
2023-02-23T19:12:14.623Z,13.88
2023-02-23T19:15:16.048Z,13.05
2023-02-23T19:18:17.437Z,15.10
2023-02-23T19:21:22.560Z,14.18
2023-02-23T19:24:24.523Z,12.73
2023-02-23T19:27:25.832Z,12.82
2023-02-23T19:30:27.132Z,11.45
2023-02-23T19:33:28.503Z,12.73
2023-02-23T19:36:31.586Z,16.98
2023-02-23T19:39:32.893Z,10.40
2023-02-23T19:42:35.129Z,12.77
2023-02-23T19:45:36.469Z,16.77
2023-02-23T19:48:38.273Z,16.65
2023-02-23T19:51:39.712Z,14.10
2023-02-23T19:54:41.074Z,11.23
2023-02-23T19:57:42.624Z,14.57
2023-02-23T20:00:47.257Z,16.63
2023-02-23T20:06:50.898Z,15.32
2023-02-23T20:09:52.409Z,17.45
2023-02-23T20:12:53.761Z,13.80
2023-02-23T20:16:02.453Z,14.98
2023-02-23T20:19:06.439Z,18.88
2023-02-23T20:22:08.826Z,13.20
2023-02-23T20:25:12.584Z,15.25
2023-02-23T20:28:13.895Z,15.10
2023-02-23T20:31:21.063Z,15.38
2023-02-23T20:34:24.367Z,21.65
2023-02-23T20:37:26.234Z,14.25
2023-02-23T20:40:27.546Z,15.00
2023-02-23T20:43:29.746Z,17.10
2023-02-23T20:46:31.250Z,14.98
2023-02-23T20:49:32.559Z,15.00
2023-02-23T20:52:35.008Z,15.35
2023-02-23T20:55:36.464Z,14.63
2023-02-23T20:58:39.679Z,14.40
2023-02-23T21:01:42.154Z,16.38
2023-02-23T21:04:44.274Z,15.20
2023-02-23T21:07:45.774Z,16.88
2023-02-23T21:10:48.637Z,17.00
2023-02-23T21:13:49.961Z,14.18
2023-02-23T21:16:51.335Z,15.48
2023-02-23T21:19:52.650Z,15.82
2023-02-23T21:22:54.307Z,15.20
2023-02-23T21:25:58.050Z,18.88
2023-02-23T21:28:59.385Z,16.25
2023-02-23T21:32:00.790Z,12.25
2023-02-23T21:35:02.178Z,16.15
2023-02-23T21:38:04.058Z,12.95
2023-02-23T21:41:05.869Z,13.63
2023-02-23T21:44:08.068Z,19.30
2023-02-23T21:47:09.467Z,19.42
2023-02-23T21:50:13.440Z,17.23
2023-02-23T21:53:14.745Z,15.00
2023-02-23T21:56:17.350Z,14.93
2023-02-23T21:59:19.522Z,14.52
2023-02-23T22:02:20.829Z,17.85
2023-02-23T22:05:22.216Z,16.70
2023-02-23T22:08:23.611Z,16.83
2023-02-23T22:11:26.714Z,16.90
2023-02-23T22:14:28.034Z,17.48
2023-02-23T22:17:30.976Z,14.65
2023-02-23T22:20:32.480Z,13.35
2023-02-23T22:23:36.719Z,17.05
2023-02-23T22:26:41.732Z,16.50
2023-02-23T22:29:43.089Z,12.73
2023-02-23T22:32:44.682Z,12.35
2023-02-23T22:35:46.332Z,21.15
2023-02-23T22:38:47.604Z,16.05
2023-02-23T22:41:48.969Z,18.52
2023-02-23T22:44:50.725Z,12.45
2023-02-23T22:47:52.073Z,14.23
2023-02-23T22:50:53.355Z,20.52
2023-02-23T22:53:54.660Z,11.95
2023-02-23T22:56:55.939Z,11.85
2023-02-23T23:00:00.576Z,17.20
2023-02-23T23:06:08.592Z,17.85
2023-02-23T23:09:14.869Z,15.98
2023-02-23T23:12:18.033Z,16.00
2023-02-23T23:15:22.169Z,15.50
2023-02-23T23:18:24.476Z,13.70
2023-02-23T23:21:27.918Z,14.38
2023-02-23T23:24:29.310Z,15.23
2023-02-23T23:27:33.099Z,18.60
2023-02-23T23:30:35.237Z,19.38
2023-02-23T23:33:39.861Z,17.23
2023-02-23T23:39:59.203Z,17.90
2023-02-23T23:43:01.943Z,17.55
2023-02-23T23:46:05.264Z,17.88
2023-02-23T23:49:10.925Z,16.95
2023-02-23T23:52:17.682Z,18.70
2023-02-23T23:55:19.185Z,16.15
2023-02-23T23:58:20.601Z,18.38
